sensor_id;sensor_type;location;lat;lon;timestamp;temperature;humidity
3198;DHT22;1611;49.394;11.136;2023-02-22T00:01:11;5.60;72.10
3198;DHT22;1611;49.394;11.136;2023-02-22T00:03:48;5.50;71.80
3198;DHT22;1611;49.394;11.136;2023-02-22T00:06:17;5.50;71.30
3198;DHT22;1611;49.394;11.136;2023-02-22T00:08:46;5.40;70.70
3198;DHT22;1611;49.394;11.136;2023-02-22T00:11:14;5.40;70.70
3198;DHT22;1611;49.394;11.136;2023-02-22T00:13:41;5.30;70.70
3198;DHT22;1611;49.394;11.136;2023-02-22T00:16:13;5.30;70.50
3198;DHT22;1611;49.394;11.136;2023-02-22T00:18:40;5.30;70.60
3198;DHT22;1611;49.394;11.136;2023-02-22T00:21:07;5.20;70.50
3198;DHT22;1611;49.394;11.136;2023-02-22T00:23:35;5.30;71.10
3198;DHT22;1611;49.394;11.136;2023-02-22T00:26:06;5.20;70.90
3198;DHT22;1611;49.394;11.136;2023-02-22T00:28:34;5.30;70.90
3198;DHT22;1611;49.394;11.136;2023-02-22T00:31:01;5.20;70.80
3198;DHT22;1611;49.394;11.136;2023-02-22T00:33:30;5.30;70.80
3198;DHT22;1611;49.394;11.136;2023-02-22T00:35:56;5.30;70.10
3198;DHT22;1611;49.394;11.136;2023-02-22T00:38:23;5.20;69.80
3198;DHT22;1611;49.394;11.136;2023-02-22T00:40:50;5.20;69.50
3198;DHT22;1611;49.394;11.136;2023-02-22T00:43:18;5.10;69.60
3198;DHT22;1611;49.394;11.136;2023-02-22T00:45:45;4.90;70.10
3198;DHT22;1611;49.394;11.136;2023-02-22T00:48:11;4.90;70.30
3198;DHT22;1611;49.394;11.136;2023-02-22T00:50:38;4.80;70.80
3198;DHT22;1611;49.394;11.136;2023-02-22T00:53:05;4.70;71.50
3198;DHT22;1611;49.394;11.136;2023-02-22T00:55:35;4.70;72.10
3198;DHT22;1611;49.394;11.136;2023-02-22T00:58:03;4.70;72.10
3198;DHT22;1611;49.394;11.136;2023-02-22T01:00:34;4.70;72.00
3198;DHT22;1611;49.394;11.136;2023-02-22T01:03:02;4.70;71.40
3198;DHT22;1611;49.394;11.136;2023-02-22T01:05:30;4.80;71.30
3198;DHT22;1611;49.394;11.136;2023-02-22T01:07:58;4.80;71.20
3198;DHT22;1611;49.394;11.136;2023-02-22T01:10:27;4.80;71.60
3198;DHT22;1611;49.394;11.136;2023-02-22T01:12:55;4.90;71.40
3198;DHT22;1611;49.394;11.136;2023-02-22T01:15:24;4.90;71.80
3198;DHT22;1611;49.394;11.136;2023-02-22T01:17:54;4.90;72.20
3198;DHT22;1611;49.394;11.136;2023-02-22T01:20:23;4.90;72.30
3198;DHT22;1611;49.394;11.136;2023-02-22T01:22:52;4.80;71.60
3198;DHT22;1611;49.394;11.136;2023-02-22T01:25:21;4.70;71.20
3198;DHT22;1611;49.394;11.136;2023-02-22T01:27:48;4.70;70.80
3198;DHT22;1611;49.394;11.136;2023-02-22T01:30:19;4.70;70.80
3198;DHT22;1611;49.394;11.136;2023-02-22T01:32:46;4.60;70.70
3198;DHT22;1611;49.394;11.136;2023-02-22T01:35:17;4.60;70.70
3198;DHT22;1611;49.394;11.136;2023-02-22T01:37:44;4.60;70.00
3198;DHT22;1611;49.394;11.136;2023-02-22T01:40:17;4.70;70.30
3198;DHT22;1611;49.394;11.136;2023-02-22T01:42:46;4.70;70.80
3198;DHT22;1611;49.394;11.136;2023-02-22T01:45:42;4.60;70.50
3198;DHT22;1611;49.394;11.136;2023-02-22T01:48:14;4.60;70.70
3198;DHT22;1611;49.394;11.136;2023-02-22T01:50:45;4.50;70.90
3198;DHT22;1611;49.394;11.136;2023-02-22T01:53:15;4.40;71.00
3198;DHT22;1611;49.394;11.136;2023-02-22T01:55:44;4.50;71.00
3198;DHT22;1611;49.394;11.136;2023-02-22T01:58:12;4.40;71.20
3198;DHT22;1611;49.394;11.136;2023-02-22T02:00:40;4.40;71.20
3198;DHT22;1611;49.394;11.136;2023-02-22T02:03:13;4.40;71.20
3198;DHT22;1611;49.394;11.136;2023-02-22T02:05:43;4.40;71.10
3198;DHT22;1611;49.394;11.136;2023-02-22T02:08:18;4.40;71.10
3198;DHT22;1611;49.394;11.136;2023-02-22T02:10:47;4.40;71.40
3198;DHT22;1611;49.394;11.136;2023-02-22T02:13:15;4.40;71.10
3198;DHT22;1611;49.394;11.136;2023-02-22T02:15:42;4.40;71.40
3198;DHT22;1611;49.394;11.136;2023-02-22T02:18:11;4.30;71.10
3198;DHT22;1611;49.394;11.136;2023-02-22T02:20:43;4.30;70.80
3198;DHT22;1611;49.394;11.136;2023-02-22T02:23:32;4.40;70.10
3198;DHT22;1611;49.394;11.136;2023-02-22T02:26:24;4.40;69.90
3198;DHT22;1611;49.394;11.136;2023-02-22T02:32:28;4.30;70.40
3198;DHT22;1611;49.394;11.136;2023-02-22T02:35:02;4.20;70.40
3198;DHT22;1611;49.394;11.136;2023-02-22T02:37:34;4.00;70.60
3198;DHT22;1611;49.394;11.136;2023-02-22T02:40:10;4.00;70.90
3198;DHT22;1611;49.394;11.136;2023-02-22T02:42:50;4.00;71.00
3198;DHT22;1611;49.394;11.136;2023-02-22T02:45:24;4.00;70.80
3198;DHT22;1611;49.394;11.136;2023-02-22T02:47:56;4.00;70.60
3198;DHT22;1611;49.394;11.136;2023-02-22T02:50:27;4.00;70.70
3198;DHT22;1611;49.394;11.136;2023-02-22T02:52:57;3.90;70.80
3198;DHT22;1611;49.394;11.136;2023-02-22T02:55:27;4.00;70.90
3198;DHT22;1611;49.394;11.136;2023-02-22T02:57:54;3.90;71.00
3198;DHT22;1611;49.394;11.136;2023-02-22T03:00:25;3.90;71.10
3198;DHT22;1611;49.394;11.136;2023-02-22T03:03:06;3.90;71.00
3198;DHT22;1611;49.394;11.136;2023-02-22T03:05:47;3.80;70.80
3198;DHT22;1611;49.394;11.136;2023-02-22T03:08:24;3.90;70.60
3198;DHT22;1611;49.394;11.136;2023-02-22T03:10:58;3.90;70.00
3198;DHT22;1611;49.394;11.136;2023-02-22T03:13:33;3.80;69.90
3198;DHT22;1611;49.394;11.136;2023-02-22T03:16:11;3.80;70.50
3198;DHT22;1611;49.394;11.136;2023-02-22T03:18:49;3.70;70.70
3198;DHT22;1611;49.394;11.136;2023-02-22T03:21:23;3.80;70.80
3198;DHT22;1611;49.394;11.136;2023-02-22T03:23:58;3.80;70.70
3198;DHT22;1611;49.394;11.136;2023-02-22T03:26:34;3.70;70.80
3198;DHT22;1611;49.394;11.136;2023-02-22T03:29:05;3.90;71.00
3198;DHT22;1611;49.394;11.136;2023-02-22T03:31:37;3.80;71.20
3198;DHT22;1611;49.394;11.136;2023-02-22T03:34:10;3.80;70.80
3198;DHT22;1611;49.394;11.136;2023-02-22T03:36:41;3.90;70.70
3198;DHT22;1611;49.394;11.136;2023-02-22T03:39:12;3.80;70.30
3198;DHT22;1611;49.394;11.136;2023-02-22T03:41:42;3.80;70.30
3198;DHT22;1611;49.394;11.136;2023-02-22T03:44:15;3.70;70.30
3198;DHT22;1611;49.394;11.136;2023-02-22T03:46:44;3.70;70.10
3198;DHT22;1611;49.394;11.136;2023-02-22T03:49:16;3.60;69.90
3198;DHT22;1611;49.394;11.136;2023-02-22T03:51:45;3.60;69.80
3198;DHT22;1611;49.394;11.136;2023-02-22T03:54:12;3.60;69.90
3198;DHT22;1611;49.394;11.136;2023-02-22T03:56:43;3.50;70.20
3198;DHT22;1611;49.394;11.136;2023-02-22T03:59:14;3.50;71.00
3198;DHT22;1611;49.394;11.136;2023-02-22T04:01:41;3.50;71.50
3198;DHT22;1611;49.394;11.136;2023-02-22T04:04:08;3.40;71.40
3198;DHT22;1611;49.394;11.136;2023-02-22T04:06:36;3.30;71.30
3198;DHT22;1611;49.394;11.136;2023-02-22T04:09:03;3.30;71.30
3198;DHT22;1611;49.394;11.136;2023-02-22T04:11:29;3.30;71.80
3198;DHT22;1611;49.394;11.136;2023-02-22T04:13:56;3.30;71.70
3198;DHT22;1611;49.394;11.136;2023-02-22T04:16:23;3.30;71.30
3198;DHT22;1611;49.394;11.136;2023-02-22T04:18:50;3.30;71.10
3198;DHT22;1611;49.394;11.136;2023-02-22T04:21:16;3.30;71.10
3198;DHT22;1611;49.394;11.136;2023-02-22T04:23:45;3.30;70.70
3198;DHT22;1611;49.394;11.136;2023-02-22T04:26:11;3.20;70.10
3198;DHT22;1611;49.394;11.136;2023-02-22T04:28:38;3.20;70.10
3198;DHT22;1611;49.394;11.136;2023-02-22T04:31:05;3.10;70.20
3198;DHT22;1611;49.394;11.136;2023-02-22T04:33:32;3.20;70.30
3198;DHT22;1611;49.394;11.136;2023-02-22T04:35:58;3.10;70.30
3198;DHT22;1611;49.394;11.136;2023-02-22T04:38:26;3.10;70.20
3198;DHT22;1611;49.394;11.136;2023-02-22T04:40:54;3.10;70.10
3198;DHT22;1611;49.394;11.136;2023-02-22T04:43:21;3.00;69.70
3198;DHT22;1611;49.394;11.136;2023-02-22T04:45:47;3.10;69.30
3198;DHT22;1611;49.394;11.136;2023-02-22T04:48:14;3.00;68.80
3198;DHT22;1611;49.394;11.136;2023-02-22T04:50:41;3.00;68.80
3198;DHT22;1611;49.394;11.136;2023-02-22T04:53:08;3.00;69.00
3198;DHT22;1611;49.394;11.136;2023-02-22T04:55:35;3.00;68.70
3198;DHT22;1611;49.394;11.136;2023-02-22T04:58:03;3.00;68.60
3198;DHT22;1611;49.394;11.136;2023-02-22T05:00:30;2.90;68.40
3198;DHT22;1611;49.394;11.136;2023-02-22T05:02:57;3.00;69.20
3198;DHT22;1611;49.394;11.136;2023-02-22T05:05:23;2.90;69.50
3198;DHT22;1611;49.394;11.136;2023-02-22T05:07:50;2.80;69.80
3198;DHT22;1611;49.394;11.136;2023-02-22T05:10:18;2.90;69.80
3198;DHT22;1611;49.394;11.136;2023-02-22T05:12:45;2.90;69.40
3198;DHT22;1611;49.394;11.136;2023-02-22T05:15:17;2.90;69.20
3198;DHT22;1611;49.394;11.136;2023-02-22T05:17:44;2.80;69.10
3198;DHT22;1611;49.394;11.136;2023-02-22T05:20:16;2.80;69.10
3198;DHT22;1611;49.394;11.136;2023-02-22T05:22:46;2.80;69.20
3198;DHT22;1611;49.394;11.136;2023-02-22T05:25:13;2.80;69.10
3198;DHT22;1611;49.394;11.136;2023-02-22T05:27:40;2.70;69.20
3198;DHT22;1611;49.394;11.136;2023-02-22T05:30:09;2.70;70.40
3198;DHT22;1611;49.394;11.136;2023-02-22T05:32:37;2.70;71.00
3198;DHT22;1611;49.394;11.136;2023-02-22T05:35:04;2.80;71.20
3198;DHT22;1611;49.394;11.136;2023-02-22T05:37:32;2.90;71.40
3198;DHT22;1611;49.394;11.136;2023-02-22T05:40:00;2.90;70.90
3198;DHT22;1611;49.394;11.136;2023-02-22T05:42:26;2.90;70.20
3198;DHT22;1611;49.394;11.136;2023-02-22T05:44:53;2.90;69.60
3198;DHT22;1611;49.394;11.136;2023-02-22T05:47:20;2.90;69.50
3198;DHT22;1611;49.394;11.136;2023-02-22T05:49:48;2.90;69.50
3198;DHT22;1611;49.394;11.136;2023-02-22T05:52:15;2.80;69.50
3198;DHT22;1611;49.394;11.136;2023-02-22T05:54:42;2.90;69.80
3198;DHT22;1611;49.394;11.136;2023-02-22T05:57:08;2.90;69.70
3198;DHT22;1611;49.394;11.136;2023-02-22T05:59:35;2.90;69.70
3198;DHT22;1611;49.394;11.136;2023-02-22T06:02:02;3.00;69.90
3198;DHT22;1611;49.394;11.136;2023-02-22T06:04:29;3.00;69.60
3198;DHT22;1611;49.394;11.136;2023-02-22T06:06:57;2.90;69.40
3198;DHT22;1611;49.394;11.136;2023-02-22T06:09:24;2.90;69.70
3198;DHT22;1611;49.394;11.136;2023-02-22T06:11:50;2.90;69.80
3198;DHT22;1611;49.394;11.136;2023-02-22T06:14:17;3.00;69.80
3198;DHT22;1611;49.394;11.136;2023-02-22T06:16:51;3.00;69.50
3198;DHT22;1611;49.394;11.136;2023-02-22T06:19:18;3.00;69.50
3198;DHT22;1611;49.394;11.136;2023-02-22T06:21:48;3.00;69.30
3198;DHT22;1611;49.394;11.136;2023-02-22T06:24:16;3.00;69.10
3198;DHT22;1611;49.394;11.136;2023-02-22T06:26:43;3.00;69.30
3198;DHT22;1611;49.394;11.136;2023-02-22T06:29:10;3.00;69.40
3198;DHT22;1611;49.394;11.136;2023-02-22T06:31:37;3.10;69.50
3198;DHT22;1611;49.394;11.136;2023-02-22T06:34:03;3.00;69.70
3198;DHT22;1611;49.394;11.136;2023-02-22T06:36:30;2.90;69.90
3198;DHT22;1611;49.394;11.136;2023-02-22T06:38:57;3.00;70.30
3198;DHT22;1611;49.394;11.136;2023-02-22T06:41:25;3.00;70.10
3198;DHT22;1611;49.394;11.136;2023-02-22T06:43:52;2.90;70.30
3198;DHT22;1611;49.394;11.136;2023-02-22T06:46:18;3.00;70.40
3198;DHT22;1611;49.394;11.136;2023-02-22T06:48:46;3.10;70.30
3198;DHT22;1611;49.394;11.136;2023-02-22T06:51:14;3.10;70.40
3198;DHT22;1611;49.394;11.136;2023-02-22T06:53:41;3.20;70.00
3198;DHT22;1611;49.394;11.136;2023-02-22T06:56:08;3.20;70.30
3198;DHT22;1611;49.394;11.136;2023-02-22T06:58:36;3.30;70.30
3198;DHT22;1611;49.394;11.136;2023-02-22T07:01:03;3.40;70.30
3198;DHT22;1611;49.394;11.136;2023-02-22T07:03:33;3.50;69.80
3198;DHT22;1611;49.394;11.136;2023-02-22T07:06:00;3.60;68.80
3198;DHT22;1611;49.394;11.136;2023-02-22T07:08:27;3.60;69.10
3198;DHT22;1611;49.394;11.136;2023-02-22T07:10:54;3.90;68.30
3198;DHT22;1611;49.394;11.136;2023-02-22T07:13:20;3.90;67.70
3198;DHT22;1611;49.394;11.136;2023-02-22T07:15:49;3.90;67.80
3198;DHT22;1611;49.394;11.136;2023-02-22T07:18:15;3.90;68.70
3198;DHT22;1611;49.394;11.136;2023-02-22T07:20:42;3.90;68.80
3198;DHT22;1611;49.394;11.136;2023-02-22T07:23:12;4.00;68.70
3198;DHT22;1611;49.394;11.136;2023-02-22T07:25:39;4.00;68.40
3198;DHT22;1611;49.394;11.136;2023-02-22T07:28:06;4.10;68.50
3198;DHT22;1611;49.394;11.136;2023-02-22T07:30:35;4.10;68.30
3198;DHT22;1611;49.394;11.136;2023-02-22T07:33:05;4.20;68.10
3198;DHT22;1611;49.394;11.136;2023-02-22T07:35:34;4.30;68.30
3198;DHT22;1611;49.394;11.136;2023-02-22T07:38:03;4.40;67.90
3198;DHT22;1611;49.394;11.136;2023-02-22T07:40:30;4.50;67.80
3198;DHT22;1611;49.394;11.136;2023-02-22T07:42:58;4.60;67.90
3198;DHT22;1611;49.394;11.136;2023-02-22T07:45:29;4.60;68.00
3198;DHT22;1611;49.394;11.136;2023-02-22T07:47:56;4.80;68.50
3198;DHT22;1611;49.394;11.136;2023-02-22T07:50:25;4.90;68.30
3198;DHT22;1611;49.394;11.136;2023-02-22T07:52:54;5.00;68.20
3198;DHT22;1611;49.394;11.136;2023-02-22T07:55:23;5.10;68.60
3198;DHT22;1611;49.394;11.136;2023-02-22T07:57:52;5.20;68.90
3198;DHT22;1611;49.394;11.136;2023-02-22T08:00:23;5.30;69.50
3198;DHT22;1611;49.394;11.136;2023-02-22T08:02:50;5.50;69.80
3198;DHT22;1611;49.394;11.136;2023-02-22T08:05:19;5.70;70.00
3198;DHT22;1611;49.394;11.136;2023-02-22T08:07:47;5.70;70.40
3198;DHT22;1611;49.394;11.136;2023-02-22T08:10:15;5.80;70.70
3198;DHT22;1611;49.394;11.136;2023-02-22T08:12:42;5.90;71.10
3198;DHT22;1611;49.394;11.136;2023-02-22T08:15:16;6.10;71.30
3198;DHT22;1611;49.394;11.136;2023-02-22T08:17:43;6.20;71.40
3198;DHT22;1611;49.394;11.136;2023-02-22T08:20:10;6.40;71.70
3198;DHT22;1611;49.394;11.136;2023-02-22T08:22:37;6.50;71.70
3198;DHT22;1611;49.394;11.136;2023-02-22T08:25:06;6.60;71.60
3198;DHT22;1611;49.394;11.136;2023-02-22T08:27:33;6.90;72.00
3198;DHT22;1611;49.394;11.136;2023-02-22T08:30:00;7.00;72.00
3198;DHT22;1611;49.394;11.136;2023-02-22T08:32:26;7.20;72.40
3198;DHT22;1611;49.394;11.136;2023-02-22T08:34:53;7.30;72.60
3198;DHT22;1611;49.394;11.136;2023-02-22T08:37:20;7.50;72.20
3198;DHT22;1611;49.394;11.136;2023-02-22T08:39:46;7.70;72.70
3198;DHT22;1611;49.394;11.136;2023-02-22T08:42:14;7.70;72.50
3198;DHT22;1611;49.394;11.136;2023-02-22T08:44:41;7.90;72.30
3198;DHT22;1611;49.394;11.136;2023-02-22T08:47:08;7.90;72.90
3198;DHT22;1611;49.394;11.136;2023-02-22T08:49:35;8.10;73.20
3198;DHT22;1611;49.394;11.136;2023-02-22T08:52:01;8.20;73.60
3198;DHT22;1611;49.394;11.136;2023-02-22T08:54:28;8.40;73.50
3198;DHT22;1611;49.394;11.136;2023-02-22T08:56:55;8.50;73.50
3198;DHT22;1611;49.394;11.136;2023-02-22T08:59:23;8.70;73.30
3198;DHT22;1611;49.394;11.136;2023-02-22T09:01:49;8.90;73.30
3198;DHT22;1611;49.394;11.136;2023-02-22T09:04:16;9.20;72.60
3198;DHT22;1611;49.394;11.136;2023-02-22T09:06:43;9.30;72.10
3198;DHT22;1611;49.394;11.136;2023-02-22T09:09:13;9.50;71.00
3198;DHT22;1611;49.394;11.136;2023-02-22T09:11:42;9.60;70.20
3198;DHT22;1611;49.394;11.136;2023-02-22T09:14:09;9.60;69.60
3198;DHT22;1611;49.394;11.136;2023-02-22T09:16:37;9.80;68.40
3198;DHT22;1611;49.394;11.136;2023-02-22T09:19:03;9.90;68.90
3198;DHT22;1611;49.394;11.136;2023-02-22T09:21:30;10.10;67.10
3198;DHT22;1611;49.394;11.136;2023-02-22T09:23:57;10.30;66.90
3198;DHT22;1611;49.394;11.136;2023-02-22T09:26:30;10.50;65.00
3198;DHT22;1611;49.394;11.136;2023-02-22T09:28:57;10.70;63.50
3198;DHT22;1611;49.394;11.136;2023-02-22T09:31:24;10.90;63.30
3198;DHT22;1611;49.394;11.136;2023-02-22T09:33:52;11.00;62.10
3198;DHT22;1611;49.394;11.136;2023-02-22T09:36:19;11.10;61.00
3198;DHT22;1611;49.394;11.136;2023-02-22T09:38:46;11.10;60.80
3198;DHT22;1611;49.394;11.136;2023-02-22T09:41:17;11.30;60.80
3198;DHT22;1611;49.394;11.136;2023-02-22T09:43:49;11.40;60.60
3198;DHT22;1611;49.394;11.136;2023-02-22T09:46:24;11.40;59.70
3198;DHT22;1611;49.394;11.136;2023-02-22T09:49:01;11.60;59.70
3198;DHT22;1611;49.394;11.136;2023-02-22T09:51:33;11.80;59.40
3198;DHT22;1611;49.394;11.136;2023-02-22T09:54:09;12.00;58.10
3198;DHT22;1611;49.394;11.136;2023-02-22T09:56:39;12.20;56.40
3198;DHT22;1611;49.394;11.136;2023-02-22T09:59:07;12.40;54.40
3198;DHT22;1611;49.394;11.136;2023-02-22T10:01:39;12.70;53.10
3198;DHT22;1611;49.394;11.136;2023-02-22T10:04:12;13.20;53.00
3198;DHT22;1611;49.394;11.136;2023-02-22T10:06:55;13.60;49.60
3198;DHT22;1611;49.394;11.136;2023-02-22T10:09:27;14.00;48.40
3198;DHT22;1611;49.394;11.136;2023-02-22T10:11:57;14.30;46.30
3198;DHT22;1611;49.394;11.136;2023-02-22T10:14:41;14.40;45.30
3198;DHT22;1611;49.394;11.136;2023-02-22T10:17:14;14.70;44.60
3198;DHT22;1611;49.394;11.136;2023-02-22T10:19:53;14.80;44.70
3198;DHT22;1611;49.394;11.136;2023-02-22T10:22:34;15.20;43.10
3198;DHT22;1611;49.394;11.136;2023-02-22T10:25:09;15.70;40.10
3198;DHT22;1611;49.394;11.136;2023-02-22T10:27:40;16.10;38.10
3198;DHT22;1611;49.394;11.136;2023-02-22T10:30:15;16.20;37.80
3198;DHT22;1611;49.394;11.136;2023-02-22T10:32:44;16.30;37.70
3198;DHT22;1611;49.394;11.136;2023-02-22T10:35:20;16.10;37.60
3198;DHT22;1611;49.394;11.136;2023-02-22T10:37:50;16.20;37.80
3198;DHT22;1611;49.394;11.136;2023-02-22T10:40:21;16.10;38.10
3198;DHT22;1611;49.394;11.136;2023-02-22T10:42:57;16.30;39.20
3198;DHT22;1611;49.394;11.136;2023-02-22T10:45:27;16.80;38.00
3198;DHT22;1611;49.394;11.136;2023-02-22T10:47:55;17.50;36.20
3198;DHT22;1611;49.394;11.136;2023-02-22T10:50:25;18.30;33.80
3198;DHT22;1611;49.394;11.136;2023-02-22T10:52:54;18.80;31.20
3198;DHT22;1611;49.394;11.136;2023-02-22T10:55:21;19.00;29.60
3198;DHT22;1611;49.394;11.136;2023-02-22T10:57:49;19.20;29.60
3198;DHT22;1611;49.394;11.136;2023-02-22T11:00:19;19.10;29.20
3198;DHT22;1611;49.394;11.136;2023-02-22T11:02:52;19.00;29.00
3198;DHT22;1611;49.394;11.136;2023-02-22T11:05:30;19.20;28.50
3198;DHT22;1611;49.394;11.136;2023-02-22T11:08:23;19.60;28.20
3198;DHT22;1611;49.394;11.136;2023-02-22T11:10:51;20.30;27.00
3198;DHT22;1611;49.394;11.136;2023-02-22T11:13:23;20.60;26.10
3198;DHT22;1611;49.394;11.136;2023-02-22T11:15:51;20.70;25.20
3198;DHT22;1611;49.394;11.136;2023-02-22T11:18:24;20.40;26.10
3198;DHT22;1611;49.394;11.136;2023-02-22T11:21:01;19.90;26.70
3198;DHT22;1611;49.394;11.136;2023-02-22T11:23:28;19.50;27.60
3198;DHT22;1611;49.394;11.136;2023-02-22T11:26:07;19.10;28.80
3198;DHT22;1611;49.394;11.136;2023-02-22T11:28:35;18.80;29.80
3198;DHT22;1611;49.394;11.136;2023-02-22T11:31:14;18.40;30.30
3198;DHT22;1611;49.394;11.136;2023-02-22T11:33:50;18.00;30.90
3198;DHT22;1611;49.394;11.136;2023-02-22T11:36:32;17.80;31.00
3198;DHT22;1611;49.394;11.136;2023-02-22T11:39:03;17.70;31.80
3198;DHT22;1611;49.394;11.136;2023-02-22T11:41:31;17.70;32.20
3198;DHT22;1611;49.394;11.136;2023-02-22T11:44:13;17.70;31.90
3198;DHT22;1611;49.394;11.136;2023-02-22T11:46:41;17.90;31.70
3198;DHT22;1611;49.394;11.136;2023-02-22T11:49:10;18.10;30.80
3198;DHT22;1611;49.394;11.136;2023-02-22T11:51:47;18.30;30.40
3198;DHT22;1611;49.394;11.136;2023-02-22T11:54:32;18.50;29.20
3198;DHT22;1611;49.394;11.136;2023-02-22T11:57:13;18.50;29.00
3198;DHT22;1611;49.394;11.136;2023-02-22T11:59:50;18.40;29.20
3198;DHT22;1611;49.394;11.136;2023-02-22T12:02:30;18.30;29.50
3198;DHT22;1611;49.394;11.136;2023-02-22T12:05:13;18.60;29.10
3198;DHT22;1611;49.394;11.136;2023-02-22T12:07:54;18.80;29.50
3198;DHT22;1611;49.394;11.136;2023-02-22T12:10:32;18.90;28.80
3198;DHT22;1611;49.394;11.136;2023-02-22T12:13:21;19.00;27.60
3198;DHT22;1611;49.394;11.136;2023-02-22T12:15:56;19.10;28.40
3198;DHT22;1611;49.394;11.136;2023-02-22T12:18:30;19.20;27.80
3198;DHT22;1611;49.394;11.136;2023-02-22T12:21:01;19.20;27.70
3198;DHT22;1611;49.394;11.136;2023-02-22T12:23:35;19.20;27.10
3198;DHT22;1611;49.394;11.136;2023-02-22T12:26:10;19.50;27.30
3198;DHT22;1611;49.394;11.136;2023-02-22T12:28:41;19.70;26.90
3198;DHT22;1611;49.394;11.136;2023-02-22T12:31:14;19.60;26.40
3198;DHT22;1611;49.394;11.136;2023-02-22T12:33:50;19.60;25.90
3198;DHT22;1611;49.394;11.136;2023-02-22T12:36:23;19.80;25.40
3198;DHT22;1611;49.394;11.136;2023-02-22T12:38:54;20.60;24.20
3198;DHT22;1611;49.394;11.136;2023-02-22T12:41:29;21.50;21.10
3198;DHT22;1611;49.394;11.136;2023-02-22T12:44:00;21.60;20.20
3198;DHT22;1611;49.394;11.136;2023-02-22T12:46:30;21.30;21.60
3198;DHT22;1611;49.394;11.136;2023-02-22T12:49:06;21.30;21.80
3198;DHT22;1611;49.394;11.136;2023-02-22T12:51:40;21.50;21.90
3198;DHT22;1611;49.394;11.136;2023-02-22T12:54:15;21.60;21.20
3198;DHT22;1611;49.394;11.136;2023-02-22T12:56:49;21.70;21.40
3198;DHT22;1611;49.394;11.136;2023-02-22T12:59:21;22.20;19.90
3198;DHT22;1611;49.394;11.136;2023-02-22T13:01:53;22.20;20.00
3198;DHT22;1611;49.394;11.136;2023-02-22T13:04:22;22.10;20.00
3198;DHT22;1611;49.394;11.136;2023-02-22T13:06:59;21.70;20.20
3198;DHT22;1611;49.394;11.136;2023-02-22T13:09:46;21.60;20.20
3198;DHT22;1611;49.394;11.136;2023-02-22T13:12:18;21.40;20.70
3198;DHT22;1611;49.394;11.136;2023-02-22T13:14:55;21.60;20.70
3198;DHT22;1611;49.394;11.136;2023-02-22T13:17:28;21.50;21.20
3198;DHT22;1611;49.394;11.136;2023-02-22T13:19:59;22.50;20.10
3198;DHT22;1611;49.394;11.136;2023-02-22T13:22:32;22.50;19.30
3198;DHT22;1611;49.394;11.136;2023-02-22T13:25:07;23.10;18.70
3198;DHT22;1611;49.394;11.136;2023-02-22T13:27:40;23.20;17.80
3198;DHT22;1611;49.394;11.136;2023-02-22T13:30:19;23.10;18.20
3198;DHT22;1611;49.394;11.136;2023-02-22T13:33:12;23.20;18.10
3198;DHT22;1611;49.394;11.136;2023-02-22T13:35:57;22.90;18.40
3198;DHT22;1611;49.394;11.136;2023-02-22T13:38:58;22.80;18.70
3198;DHT22;1611;49.394;11.136;2023-02-22T13:47:33;23.40;18.10
3198;DHT22;1611;49.394;11.136;2023-02-22T13:50:34;23.80;17.90
3198;DHT22;1611;49.394;11.136;2023-02-22T13:53:08;24.00;17.20
3198;DHT22;1611;49.394;11.136;2023-02-22T13:55:38;23.70;17.30
3198;DHT22;1611;49.394;11.136;2023-02-22T13:58:09;23.10;18.00
3198;DHT22;1611;49.394;11.136;2023-02-22T14:00:44;22.30;19.50
3198;DHT22;1611;49.394;11.136;2023-02-22T14:03:29;21.80;20.00
3198;DHT22;1611;49.394;11.136;2023-02-22T14:06:01;21.20;21.40
3198;DHT22;1611;49.394;11.136;2023-02-22T14:08:42;20.80;22.30
3198;DHT22;1611;49.394;11.136;2023-02-22T14:14:22;20.20;24.00
3198;DHT22;1611;49.394;11.136;2023-02-22T14:17:16;19.90;25.80
3198;DHT22;1611;49.394;11.136;2023-02-22T14:20:04;20.00;25.40
3198;DHT22;1611;49.394;11.136;2023-02-22T14:22:39;19.90;25.80
3198;DHT22;1611;49.394;11.136;2023-02-22T14:25:30;19.60;26.00
3198;DHT22;1611;49.394;11.136;2023-02-22T14:27:57;19.40;25.40
3198;DHT22;1611;49.394;11.136;2023-02-22T14:30:27;19.20;25.90
3198;DHT22;1611;49.394;11.136;2023-02-22T14:32:55;19.30;25.30
3198;DHT22;1611;49.394;11.136;2023-02-22T14:35:23;19.10;25.50
3198;DHT22;1611;49.394;11.136;2023-02-22T14:37:54;18.80;26.40
3198;DHT22;1611;49.394;11.136;2023-02-22T14:40:24;18.60;27.00
3198;DHT22;1611;49.394;11.136;2023-02-22T14:42:59;18.20;28.90
3198;DHT22;1611;49.394;11.136;2023-02-22T14:45:31;17.80;28.30
3198;DHT22;1611;49.394;11.136;2023-02-22T14:48:02;17.60;29.30
3198;DHT22;1611;49.394;11.136;2023-02-22T14:50:41;17.50;30.10
3198;DHT22;1611;49.394;11.136;2023-02-22T14:53:19;17.40;31.00
3198;DHT22;1611;49.394;11.136;2023-02-22T14:55:52;17.30;32.30
3198;DHT22;1611;49.394;11.136;2023-02-22T14:58:23;17.20;32.80
3198;DHT22;1611;49.394;11.136;2023-02-22T15:00:53;17.10;32.50
3198;DHT22;1611;49.394;11.136;2023-02-22T15:03:26;17.10;33.10
3198;DHT22;1611;49.394;11.136;2023-02-22T15:06:03;17.00;33.20
3198;DHT22;1611;49.394;11.136;2023-02-22T15:08:29;16.90;33.90
3198;DHT22;1611;49.394;11.136;2023-02-22T15:10:59;16.80;33.80
3198;DHT22;1611;49.394;11.136;2023-02-22T15:13:29;16.70;34.30
3198;DHT22;1611;49.394;11.136;2023-02-22T15:16:00;16.60;34.40
3198;DHT22;1611;49.394;11.136;2023-02-22T15:18:31;16.50;35.00
3198;DHT22;1611;49.394;11.136;2023-02-22T15:21:05;16.40;35.50
3198;DHT22;1611;49.394;11.136;2023-02-22T15:23:39;16.30;35.80
3198;DHT22;1611;49.394;11.136;2023-02-22T15:26:07;16.20;36.20
3198;DHT22;1611;49.394;11.136;2023-02-22T15:28:41;16.20;36.90
3198;DHT22;1611;49.394;11.136;2023-02-22T15:31:25;16.10;37.30
3198;DHT22;1611;49.394;11.136;2023-02-22T15:33:53;16.00;38.00
3198;DHT22;1611;49.394;11.136;2023-02-22T15:36:21;15.90;38.60
3198;DHT22;1611;49.394;11.136;2023-02-22T15:38:52;15.90;38.40
3198;DHT22;1611;49.394;11.136;2023-02-22T15:41:23;15.90;38.80
3198;DHT22;1611;49.394;11.136;2023-02-22T15:44:04;15.80;38.80
3198;DHT22;1611;49.394;11.136;2023-02-22T15:46:33;15.80;39.30
3198;DHT22;1611;49.394;11.136;2023-02-22T15:49:04;15.70;39.70
3198;DHT22;1611;49.394;11.136;2023-02-22T15:51:32;15.70;40.10
3198;DHT22;1611;49.394;11.136;2023-02-22T15:53:59;15.60;40.80
3198;DHT22;1611;49.394;11.136;2023-02-22T15:56:29;15.60;40.80
3198;DHT22;1611;49.394;11.136;2023-02-22T15:59:00;15.40;41.10
3198;DHT22;1611;49.394;11.136;2023-02-22T16:01:29;15.40;41.50
3198;DHT22;1611;49.394;11.136;2023-02-22T16:04:03;15.30;41.80
3198;DHT22;1611;49.394;11.136;2023-02-22T16:06:33;15.20;41.80
3198;DHT22;1611;49.394;11.136;2023-02-22T16:09:07;15.10;42.50
3198;DHT22;1611;49.394;11.136;2023-02-22T16:11:36;15.00;42.90
3198;DHT22;1611;49.394;11.136;2023-02-22T16:14:04;14.90;43.80
3198;DHT22;1611;49.394;11.136;2023-02-22T16:16:32;14.80;44.40
3198;DHT22;1611;49.394;11.136;2023-02-22T16:19:25;14.70;44.70
3198;DHT22;1611;49.394;11.136;2023-02-22T16:21:54;14.60;45.00
3198;DHT22;1611;49.394;11.136;2023-02-22T16:24:26;14.50;45.30
3198;DHT22;1611;49.394;11.136;2023-02-22T16:27:13;14.40;45.90
3198;DHT22;1611;49.394;11.136;2023-02-22T16:29:41;14.30;46.40
3198;DHT22;1611;49.394;11.136;2023-02-22T16:32:08;14.20;47.00